createdAt,value
2019-03-08T00:01:55.841Z,8.50
2019-03-08T00:04:26.855Z,8.50
2019-03-08T00:06:57.383Z,8.60
2019-03-08T00:09:28.002Z,8.60
2019-03-08T00:11:58.874Z,8.50
2019-03-08T00:14:30.371Z,8.50
2019-03-08T00:17:01.004Z,8.60
2019-03-08T00:19:32.517Z,8.60
2019-03-08T00:22:03.632Z,8.70
2019-03-08T00:24:34.607Z,8.70
2019-03-08T00:27:05.551Z,8.70
2019-03-08T00:29:36.784Z,8.70
2019-03-08T00:32:07.033Z,8.80
2019-03-08T00:34:38.382Z,8.80
2019-03-08T00:37:09.318Z,8.70
2019-03-08T00:39:41.316Z,8.80
2019-03-08T00:42:12.438Z,8.80
2019-03-08T00:44:43.384Z,8.70
2019-03-08T00:47:14.081Z,8.70
2019-03-08T00:49:45.070Z,8.70
2019-03-08T00:52:16.210Z,8.70
2019-03-08T00:54:47.101Z,8.70
2019-03-08T00:57:17.619Z,8.60
2019-03-08T00:59:48.827Z,8.60
2019-03-08T01:02:19.580Z,8.60
2019-03-08T01:04:51.130Z,8.50
2019-03-08T01:07:22.267Z,8.50
2019-03-08T01:09:54.254Z,8.50
2019-03-08T01:12:24.908Z,8.50
2019-03-08T01:14:56.134Z,8.50
2019-03-08T01:17:27.270Z,8.50
2019-03-08T01:19:58.440Z,8.50
2019-03-08T01:22:29.548Z,8.50
2019-03-08T01:25:00.329Z,8.50
2019-03-08T01:27:31.055Z,8.50
2019-03-08T01:30:02.221Z,8.40
2019-03-08T01:32:33.142Z,8.40
2019-03-08T01:35:04.896Z,8.40
2019-03-08T01:37:36.056Z,8.30
2019-03-08T01:40:08.209Z,8.40
2019-03-08T01:42:38.969Z,8.30
2019-03-08T01:45:09.488Z,8.30
2019-03-08T01:47:40.336Z,8.30
2019-03-08T01:50:16.188Z,8.30
2019-03-08T01:52:49.831Z,8.40
2019-03-08T01:55:21.048Z,8.40
2019-03-08T01:57:51.731Z,8.30
2019-03-08T02:00:22.264Z,8.40
2019-03-08T02:02:53.599Z,8.30
2019-03-08T02:05:24.490Z,8.20
2019-03-08T02:07:55.350Z,8.20
2019-03-08T02:10:27.114Z,8.20
2019-03-08T02:12:57.452Z,8.10
2019-03-08T02:15:28.203Z,8.10
2019-03-08T02:17:58.311Z,8.10
2019-03-08T02:20:29.458Z,8.10
2019-03-08T02:23:00.197Z,8.00
2019-03-08T02:25:31.334Z,8.00
2019-03-08T02:28:02.500Z,8.00
2019-03-08T02:30:33.848Z,8.00
2019-03-08T02:33:04.717Z,8.00
2019-03-08T02:35:36.209Z,8.00
2019-03-08T02:38:07.083Z,8.00
2019-03-08T02:40:38.692Z,8.00
2019-03-08T02:43:11.837Z,8.00
2019-03-08T02:45:42.981Z,7.90
2019-03-08T02:48:13.859Z,7.90
2019-03-08T02:50:44.447Z,7.90
2019-03-08T02:53:16.213Z,7.90
2019-03-08T02:55:46.695Z,7.90
2019-03-08T02:58:17.913Z,7.90
2019-03-08T03:00:49.683Z,7.90
2019-03-08T03:03:21.030Z,7.90
2019-03-08T03:05:52.591Z,7.80
2019-03-08T03:08:23.727Z,7.80
2019-03-08T03:10:54.206Z,7.80
2019-03-08T03:13:24.711Z,7.80
2019-03-08T03:15:55.673Z,7.80
2019-03-08T03:18:27.225Z,7.70
2019-03-08T03:20:57.829Z,7.70
2019-03-08T03:23:28.566Z,7.70
2019-03-08T03:25:59.646Z,7.70
2019-03-08T03:28:30.177Z,7.70
2019-03-08T03:31:02.004Z,7.60
2019-03-08T03:33:32.053Z,7.60
2019-03-08T03:36:02.631Z,7.50
2019-03-08T03:38:33.809Z,7.50
2019-03-08T03:41:04.753Z,7.50
2019-03-08T03:43:35.906Z,7.50
2019-03-08T03:46:06.515Z,7.40
2019-03-08T03:48:37.790Z,7.40
2019-03-08T03:51:08.330Z,7.40
2019-03-08T03:53:39.479Z,7.30
2019-03-08T03:56:10.403Z,7.30
2019-03-08T03:58:42.004Z,7.30
2019-03-08T04:01:37.599Z,7.20
2019-03-08T04:04:08.562Z,7.20
2019-03-08T04:06:38.967Z,7.20
2019-03-08T04:09:14.754Z,7.20
2019-03-08T04:11:47.408Z,7.10
2019-03-08T04:14:18.115Z,7.10
2019-03-08T04:16:49.092Z,7.10
2019-03-08T04:19:20.243Z,7.10
2019-03-08T04:21:51.122Z,7.10
2019-03-08T04:24:21.816Z,7.10
2019-03-08T04:26:52.860Z,7.10
2019-03-08T04:29:24.430Z,7.20
2019-03-08T04:31:55.565Z,7.20
2019-03-08T04:34:26.918Z,7.30
2019-03-08T04:36:57.042Z,7.30
2019-03-08T04:39:27.862Z,7.40
2019-03-08T04:41:58.918Z,7.50
2019-03-08T04:44:29.671Z,7.50
2019-03-08T04:47:00.142Z,7.50
2019-03-08T04:49:31.066Z,7.50
2019-03-08T04:52:02.081Z,7.50
2019-03-08T04:54:32.991Z,7.50
2019-03-08T04:57:03.560Z,7.50
2019-03-08T04:59:34.165Z,7.40
2019-03-08T05:02:05.021Z,7.30
2019-03-08T05:04:35.980Z,7.30
2019-03-08T05:07:06.876Z,7.20
2019-03-08T05:09:37.872Z,7.20
2019-03-08T05:12:09.222Z,7.10
2019-03-08T05:14:39.587Z,7.10
2019-03-08T05:17:10.286Z,7.10
2019-03-08T05:19:40.936Z,7.10
2019-03-08T05:22:11.556Z,7.10
2019-03-08T05:24:41.886Z,7.10
2019-03-08T05:27:12.785Z,7.10
2019-03-08T05:29:43.518Z,7.10
2019-03-08T05:32:14.096Z,7.10
2019-03-08T05:34:44.596Z,7.10
2019-03-08T05:37:15.438Z,7.10
2019-03-08T05:39:45.865Z,7.10
2019-03-08T05:42:17.261Z,7.10
2019-03-08T05:44:47.798Z,7.10
2019-03-08T05:47:18.282Z,7.20
2019-03-08T05:49:48.866Z,7.20
2019-03-08T05:52:19.798Z,7.30
2019-03-08T05:54:50.312Z,7.30
2019-03-08T05:57:21.628Z,7.30
2019-03-08T05:59:52.150Z,7.40
2019-03-08T06:02:23.162Z,7.40
2019-03-08T06:04:53.965Z,7.40
2019-03-08T06:07:25.038Z,7.50
2019-03-08T06:09:56.889Z,7.40
2019-03-08T06:12:28.167Z,7.40
2019-03-08T06:14:59.036Z,7.40
2019-03-08T06:17:29.428Z,7.40
2019-03-08T06:20:00.602Z,7.40
2019-03-08T06:22:32.961Z,7.30
2019-03-08T06:25:03.336Z,7.30
2019-03-08T06:27:34.197Z,7.30
2019-03-08T06:30:05.607Z,7.30
2019-03-08T06:32:36.525Z,7.30
2019-03-08T06:35:06.940Z,7.40
2019-03-08T06:37:37.803Z,7.40
2019-03-08T06:40:08.749Z,7.40
2019-03-08T06:42:40.667Z,7.40
2019-03-08T06:45:13.664Z,7.40
2019-03-08T06:47:44.852Z,7.40
2019-03-08T06:50:16.139Z,7.50
2019-03-08T06:52:47.349Z,7.50
2019-03-08T06:55:18.495Z,7.50
2019-03-08T06:57:58.669Z,7.50
2019-03-08T07:00:48.453Z,7.50
2019-03-08T07:03:19.191Z,7.60
2019-03-08T07:05:49.715Z,7.70
2019-03-08T07:08:20.865Z,7.80
2019-03-08T07:10:51.601Z,7.90
2019-03-08T07:13:22.563Z,7.90
2019-03-08T07:15:52.877Z,8.00
2019-03-08T07:18:23.006Z,8.40
2019-03-08T07:21:04.470Z,8.50
2019-03-08T07:23:53.147Z,8.50
2019-03-08T07:26:41.920Z,8.40
2019-03-08T07:29:41.131Z,8.40
2019-03-08T07:32:45.653Z,8.30
2019-03-08T07:35:45.261Z,8.40
2019-03-08T07:38:33.812Z,8.40
2019-03-08T07:41:16.553Z,8.40
2019-03-08T07:43:55.566Z,8.50
2019-03-08T07:46:44.149Z,8.50
2019-03-08T07:49:33.833Z,8.50
2019-03-08T07:52:19.804Z,8.50
2019-03-08T07:55:12.457Z,8.50
2019-03-08T07:58:03.476Z,8.60
2019-03-08T08:00:59.620Z,8.70
2019-03-08T08:03:49.199Z,8.70
2019-03-08T08:06:39.510Z,8.80
2019-03-08T08:09:29.227Z,8.90
2019-03-08T08:12:11.182Z,8.90
2019-03-08T08:15:06.694Z,9.00
2019-03-08T08:17:47.056Z,9.00
2019-03-08T08:20:36.385Z,9.20
2019-03-08T08:23:34.273Z,9.60
2019-03-08T08:26:15.390Z,10.00
2019-03-08T08:29:03.334Z,9.90
2019-03-08T08:31:42.666Z,9.70
2019-03-08T08:34:27.552Z,9.50
2019-03-08T08:37:09.685Z,9.40
2019-03-08T08:40:05.776Z,9.30
2019-03-08T08:43:02.039Z,9.40
2019-03-08T08:45:50.534Z,9.30
2019-03-08T08:48:37.904Z,9.30
2019-03-08T08:51:22.438Z,9.20
2019-03-08T08:54:00.466Z,9.20
2019-03-08T08:56:50.470Z,9.10
2019-03-08T08:59:30.026Z,9.00
2019-03-08T09:02:25.622Z,8.80
2019-03-08T09:05:13.746Z,8.70
2019-03-08T09:07:49.614Z,8.50
2019-03-08T09:10:47.926Z,8.40
2019-03-08T09:13:35.736Z,8.40
2019-03-08T09:16:22.995Z,8.30
2019-03-08T09:19:15.644Z,8.30
2019-03-08T09:22:14.210Z,8.30
2019-03-08T09:25:06.275Z,8.30
2019-03-08T09:27:51.760Z,8.20
2019-03-08T09:30:39.426Z,8.20
2019-03-08T09:33:29.294Z,8.30
2019-03-08T09:36:24.606Z,8.30
2019-03-08T09:39:08.393Z,8.20
2019-03-08T09:41:49.382Z,8.20
2019-03-08T09:44:45.764Z,8.20
2019-03-08T09:47:34.389Z,8.30
2019-03-08T09:50:15.395Z,8.30
2019-03-08T09:52:58.322Z,8.40
2019-03-08T09:55:43.812Z,8.40
2019-03-08T09:58:30.714Z,8.50
2019-03-08T10:01:21.328Z,8.50
2019-03-08T10:04:11.119Z,8.70
2019-03-08T10:06:54.758Z,8.80
2019-03-08T10:09:30.411Z,8.90
2019-03-08T10:12:08.115Z,9.10
2019-03-08T10:15:01.385Z,9.30
2019-03-08T10:17:51.776Z,9.40
2019-03-08T10:20:41.983Z,9.50
2019-03-08T10:23:32.375Z,9.30
2019-03-08T10:26:37.728Z,9.10
2019-03-08T10:29:15.215Z,9.00
2019-03-08T10:32:03.371Z,9.00
2019-03-08T10:34:58.541Z,8.90
2019-03-08T10:37:54.330Z,8.80
2019-03-08T10:40:34.839Z,8.80
2019-03-08T10:43:20.054Z,8.80
2019-03-08T10:46:15.729Z,8.90
2019-03-08T10:49:16.596Z,9.00
2019-03-08T10:52:05.755Z,9.30
2019-03-08T10:55:04.463Z,9.50
2019-03-08T10:57:54.206Z,9.60
2019-03-08T11:00:44.577Z,9.70
2019-03-08T11:03:24.939Z,9.60
2019-03-08T11:06:04.045Z,9.70
2019-03-08T11:08:41.161Z,9.70
2019-03-08T11:11:31.144Z,9.80
2019-03-08T11:14:19.911Z,10.00
2019-03-08T11:17:09.085Z,10.10
2019-03-08T11:20:13.413Z,10.30
2019-03-08T11:23:01.483Z,10.40
2019-03-08T11:25:52.753Z,10.30
2019-03-08T11:28:54.421Z,10.30
2019-03-08T11:31:34.971Z,10.50
2019-03-08T11:34:25.427Z,10.60
2019-03-08T11:37:13.759Z,10.90
2019-03-08T11:39:52.649Z,11.30
2019-03-08T11:42:30.169Z,12.90
2019-03-08T11:45:35.741Z,13.80
2019-03-08T11:48:12.785Z,14.10
2019-03-08T11:51:01.185Z,13.50
2019-03-08T11:53:55.956Z,13.10
2019-03-08T11:56:42.393Z,12.60
2019-03-08T11:59:30.772Z,12.20
2019-03-08T12:02:11.985Z,12.00
2019-03-08T12:05:01.911Z,11.80
2019-03-08T12:07:38.603Z,11.70
2019-03-08T12:10:40.467Z,11.40
2019-03-08T12:13:22.469Z,11.30
2019-03-08T12:16:10.618Z,11.10
2019-03-08T12:19:18.216Z,10.90
2019-03-08T12:21:55.272Z,10.80
2019-03-08T12:24:36.407Z,10.80
2019-03-08T12:27:16.954Z,10.80
2019-03-08T12:30:24.864Z,10.80
2019-03-08T12:33:24.195Z,10.80
2019-03-08T12:36:05.665Z,10.70
2019-03-08T12:39:05.082Z,10.70
2019-03-08T12:41:48.414Z,10.70
2019-03-08T12:44:44.036Z,10.70
2019-03-08T12:47:31.987Z,11.50
2019-03-08T12:50:26.886Z,11.80
2019-03-08T12:53:10.938Z,11.90
2019-03-08T12:56:01.543Z,11.90
2019-03-08T12:58:54.190Z,12.10
2019-03-08T13:01:35.592Z,12.30
2019-03-08T13:04:19.323Z,12.20
2019-03-08T13:06:57.330Z,12.20
2019-03-08T13:09:53.164Z,12.00
2019-03-08T13:12:23.988Z,11.80
2019-03-08T13:14:54.910Z,11.80
2019-03-08T13:17:26.095Z,11.90
2019-03-08T13:19:56.240Z,12.30
2019-03-08T13:22:26.218Z,12.70
2019-03-08T13:24:56.664Z,12.70
2019-03-08T13:27:27.413Z,12.70
2019-03-08T13:29:58.144Z,12.40
2019-03-08T13:32:28.810Z,12.20
2019-03-08T13:34:59.612Z,12.00
2019-03-08T13:37:29.759Z,11.80
2019-03-08T13:40:00.707Z,11.70
2019-03-08T13:42:31.219Z,11.70
2019-03-08T13:45:02.581Z,11.60
2019-03-08T13:47:33.051Z,11.70
2019-03-08T13:50:04.250Z,11.70
2019-03-08T13:52:34.655Z,11.60
2019-03-08T13:55:06.348Z,11.50
2019-03-08T13:57:37.503Z,11.50
2019-03-08T14:00:10.495Z,11.50
2019-03-08T14:02:40.646Z,11.50
2019-03-08T14:05:13.816Z,11.50
2019-03-08T14:07:44.686Z,11.50
2019-03-08T14:10:16.315Z,11.40
2019-03-08T14:12:46.935Z,11.20
2019-03-08T14:15:17.929Z,11.10
2019-03-08T14:17:49.970Z,11.10
2019-03-08T14:20:20.909Z,11.00
2019-03-08T14:22:51.893Z,11.00
2019-03-08T14:25:22.812Z,10.90
2019-03-08T14:27:53.701Z,10.80
2019-03-08T14:30:26.924Z,10.70
2019-03-08T14:33:01.532Z,10.60
2019-03-08T14:35:30.977Z,10.60
2019-03-08T14:38:01.810Z,10.60
2019-03-08T14:40:47.113Z,10.60
2019-03-08T14:43:36.873Z,10.60
2019-03-08T14:46:12.063Z,10.60
2019-03-08T14:48:46.311Z,10.60
2019-03-08T14:51:15.991Z,10.60
2019-03-08T14:53:46.997Z,10.60
2019-03-08T14:56:17.739Z,10.50
2019-03-08T14:58:48.680Z,10.50
2019-03-08T15:01:21.059Z,10.40
2019-03-08T15:03:52.407Z,10.50
2019-03-08T15:06:23.150Z,10.60
2019-03-08T15:08:55.050Z,11.10
2019-03-08T15:11:26.672Z,11.70
2019-03-08T15:13:58.997Z,11.90
2019-03-08T15:16:30.167Z,11.90
2019-03-08T15:19:03.792Z,11.70
2019-03-08T15:21:37.055Z,11.50
2019-03-08T15:24:05.892Z,11.50
2019-03-08T15:26:37.035Z,11.50
2019-03-08T15:29:07.633Z,11.50
2019-03-08T15:31:38.170Z,11.40
2019-03-08T15:34:09.667Z,11.30
2019-03-08T15:36:43.483Z,11.10
2019-03-08T15:39:14.123Z,11.00
2019-03-08T15:41:44.956Z,10.90
2019-03-08T15:44:15.879Z,10.70
2019-03-08T15:46:46.545Z,10.70
2019-03-08T15:49:16.972Z,10.70
2019-03-08T15:51:48.103Z,10.70
2019-03-08T15:54:19.258Z,10.70
2019-03-08T15:56:50.001Z,10.70
2019-03-08T15:59:20.660Z,10.70
2019-03-08T16:01:51.234Z,10.70
2019-03-08T16:04:21.772Z,10.60
2019-03-08T16:06:52.944Z,10.40
2019-03-08T16:09:24.285Z,10.30
2019-03-08T16:11:55.184Z,10.30
2019-03-08T16:14:26.190Z,10.30
2019-03-08T16:16:55.986Z,10.10
2019-03-08T16:19:27.083Z,10.00
2019-03-08T16:21:57.591Z,9.90
2019-03-08T16:24:31.054Z,9.90
2019-03-08T16:27:02.293Z,9.90
2019-03-08T16:29:33.091Z,9.80
2019-03-08T16:32:11.618Z,9.80
2019-03-08T16:34:42.314Z,9.70
2019-03-08T16:37:29.877Z,9.70
2019-03-08T16:40:29.298Z,9.70
2019-03-08T16:43:34.223Z,9.60
2019-03-08T16:46:18.012Z,9.50
2019-03-08T16:49:01.703Z,9.50
2019-03-08T16:51:51.304Z,9.50
2019-03-08T16:54:39.233Z,9.30
2019-03-08T16:57:18.682Z,9.20
2019-03-08T16:59:54.722Z,9.20
2019-03-08T17:02:41.151Z,9.10
2019-03-08T17:05:41.381Z,9.10
2019-03-08T17:08:30.842Z,9.00
2019-03-08T17:11:21.358Z,8.90
2019-03-08T17:14:01.425Z,8.90
2019-03-08T17:16:45.351Z,8.90
2019-03-08T17:19:53.309Z,8.90
2019-03-08T17:22:40.547Z,8.90
2019-03-08T17:25:32.950Z,8.80
2019-03-08T17:28:18.039Z,8.70
2019-03-08T17:31:06.378Z,8.70
2019-03-08T17:33:55.962Z,8.60
2019-03-08T17:36:45.594Z,8.60
2019-03-08T17:39:33.573Z,8.50
2019-03-08T17:42:22.454Z,8.50
2019-03-08T17:45:10.591Z,8.40
2019-03-08T17:47:59.914Z,8.40
2019-03-08T17:50:37.543Z,8.40
2019-03-08T17:53:35.728Z,8.40
2019-03-08T17:56:43.387Z,8.30
2019-03-08T17:59:44.844Z,8.30
2019-03-08T18:02:27.933Z,8.30
2019-03-08T18:05:25.837Z,8.30
2019-03-08T18:08:07.535Z,8.30
2019-03-08T18:10:47.887Z,8.30
2019-03-08T18:13:27.831Z,8.20
2019-03-08T18:16:26.633Z,8.20
2019-03-08T18:19:19.691Z,8.20
2019-03-08T18:22:09.271Z,8.20
2019-03-08T18:24:48.820Z,8.20
2019-03-08T18:27:50.735Z,8.20
2019-03-08T18:30:47.037Z,8.20
2019-03-08T18:33:24.937Z,8.20
2019-03-08T18:36:23.321Z,8.20
2019-03-08T18:39:12.715Z,8.10
2019-03-08T18:42:14.978Z,8.20
2019-03-08T18:44:58.513Z,8.10
2019-03-08T18:47:39.286Z,8.00
2019-03-08T18:50:49.653Z,8.00
2019-03-08T18:53:37.397Z,8.00
2019-03-08T18:56:26.987Z,8.00
2019-03-08T18:59:15.163Z,8.00
2019-03-08T19:02:17.014Z,8.00
2019-03-08T19:05:08.430Z,7.90
2019-03-08T19:07:58.512Z,8.00
2019-03-08T19:10:55.568Z,8.00
2019-03-08T19:13:45.149Z,8.00
2019-03-08T19:16:34.524Z,8.00
2019-03-08T19:19:22.681Z,8.00
2019-03-08T19:22:10.527Z,8.00
2019-03-08T19:24:57.294Z,8.00
2019-03-08T19:27:36.968Z,8.10
2019-03-08T19:30:27.727Z,8.10
2019-03-08T19:33:35.905Z,8.00
2019-03-08T19:36:11.628Z,8.10
2019-03-08T19:39:00.514Z,8.10
2019-03-08T19:41:44.875Z,8.10
2019-03-08T19:44:28.526Z,8.10
2019-03-08T19:47:10.744Z,8.10
2019-03-08T19:49:51.480Z,8.10
2019-03-08T19:52:35.243Z,8.10
2019-03-08T19:55:27.370Z,8.20
2019-03-08T19:58:29.780Z,8.10
2019-03-08T20:01:18.118Z,8.10
2019-03-08T20:04:25.518Z,8.10
2019-03-08T20:07:15.308Z,8.20
2019-03-08T20:10:11.746Z,8.10
2019-03-08T20:12:58.458Z,8.10
2019-03-08T20:16:00.657Z,8.10
2019-03-08T20:19:00.042Z,8.10
2019-03-08T20:21:49.354Z,8.10
2019-03-08T20:24:47.034Z,8.10
2019-03-08T20:27:29.912Z,8.10
2019-03-08T20:30:08.428Z,8.10
2019-03-08T20:32:57.306Z,8.10
2019-03-08T20:35:51.265Z,8.20
2019-03-08T20:38:45.992Z,8.20
2019-03-08T20:41:43.045Z,8.20
2019-03-08T20:44:17.472Z,8.20
2019-03-08T20:47:12.579Z,8.20
2019-03-08T20:49:43.236Z,8.10
2019-03-08T20:52:13.736Z,8.10
2019-03-08T20:54:44.328Z,8.10
2019-03-08T20:57:14.700Z,8.10
2019-03-08T20:59:45.174Z,8.10
2019-03-08T21:02:15.290Z,8.10
2019-03-08T21:04:45.908Z,8.10
2019-03-08T21:07:16.795Z,8.10
2019-03-08T21:09:46.803Z,8.10
2019-03-08T21:12:18.562Z,8.20
2019-03-08T21:14:48.588Z,8.20
2019-03-08T21:17:19.139Z,8.20
2019-03-08T21:19:49.380Z,8.30
2019-03-08T21:22:19.770Z,8.30
2019-03-08T21:24:50.793Z,8.30
2019-03-08T21:27:21.474Z,8.30
2019-03-08T21:29:52.842Z,8.30
2019-03-08T21:32:23.030Z,8.30
2019-03-08T21:34:53.218Z,8.30
2019-03-08T21:37:24.555Z,8.20
2019-03-08T21:39:55.844Z,8.20
2019-03-08T21:42:26.246Z,8.20
2019-03-08T21:44:57.507Z,8.20
2019-03-08T21:47:27.980Z,8.20
2019-03-08T21:49:58.503Z,8.20
2019-03-08T21:52:29.492Z,8.30
2019-03-08T21:55:00.126Z,8.30
2019-03-08T21:57:32.774Z,8.40
2019-03-08T22:00:03.274Z,8.40
2019-03-08T22:02:35.162Z,8.40
2019-03-08T22:05:07.523Z,8.40
2019-03-08T22:07:38.417Z,8.40
2019-03-08T22:10:35.684Z,8.40
2019-03-08T22:13:05.862Z,8.50
2019-03-08T22:15:38.782Z,8.50
2019-03-08T22:18:11.100Z,8.50
2019-03-08T22:20:41.539Z,8.50
2019-03-08T22:23:12.373Z,8.50
2019-03-08T22:25:42.911Z,8.60
2019-03-08T22:28:12.965Z,8.60
2019-03-08T22:30:43.906Z,8.60
2019-03-08T22:33:15.098Z,8.60
2019-03-08T22:35:46.065Z,8.60
2019-03-08T22:38:16.399Z,8.70
2019-03-08T22:40:47.479Z,8.70
2019-03-08T22:43:18.417Z,8.70
2019-03-08T22:45:49.027Z,8.70
2019-03-08T22:48:19.764Z,8.70
2019-03-08T22:50:50.571Z,8.70
2019-03-08T22:53:21.237Z,8.80
2019-03-08T22:55:52.593Z,8.80
2019-03-08T22:58:23.123Z,8.80
2019-03-08T23:01:01.394Z,8.80
2019-03-08T23:03:34.442Z,8.90
2019-03-08T23:06:04.770Z,8.90
2019-03-08T23:08:35.910Z,8.90
2019-03-08T23:11:06.913Z,8.90
2019-03-08T23:13:38.763Z,8.90
2019-03-08T23:16:09.755Z,8.90
2019-03-08T23:18:40.297Z,8.90
2019-03-08T23:21:11.185Z,8.90
2019-03-08T23:23:41.575Z,8.90
2019-03-08T23:26:12.462Z,8.90
2019-03-08T23:29:02.093Z,9.00
2019-03-08T23:31:47.289Z,9.00
2019-03-08T23:34:18.109Z,9.00
2019-03-08T23:36:49.410Z,9.00
2019-03-08T23:39:20.443Z,9.00
2019-03-08T23:41:51.145Z,9.00
2019-03-08T23:44:22.290Z,9.00
2019-03-08T23:46:53.240Z,9.00
2019-03-08T23:49:24.809Z,9.00
2019-03-08T23:51:56.146Z,9.00
2019-03-08T23:54:27.097Z,9.00
2019-03-08T23:56:58.227Z,9.10
2019-03-08T23:59:28.902Z,9.10
